createdAt,value
2019-02-05T00:01:24.492Z,7.53
2019-02-05T00:05:29.090Z,6.70
2019-02-05T00:09:33.409Z,8.60
2019-02-05T00:13:38.068Z,8.13
2019-02-05T00:17:42.443Z,8.27
2019-02-05T00:21:47.326Z,7.03
2019-02-05T00:25:51.616Z,9.43
2019-02-05T00:29:56.376Z,9.20
2019-02-05T00:34:01.002Z,7.53
2019-02-05T00:38:06.384Z,10.80
2019-02-05T00:42:11.460Z,9.27
2019-02-05T00:46:16.294Z,12.13
2019-02-05T00:50:20.810Z,9.23
2019-02-05T00:54:25.099Z,10.03
2019-02-05T00:58:29.589Z,14.13
2019-02-05T01:02:33.932Z,11.87
2019-02-05T01:06:38.240Z,8.10
2019-02-05T01:10:42.565Z,10.67
2019-02-05T01:14:46.829Z,13.03
2019-02-05T01:18:51.154Z,14.47
2019-02-05T01:22:55.598Z,10.50
2019-02-05T01:26:59.969Z,12.57
2019-02-05T01:31:04.248Z,13.23
2019-02-05T01:35:09.054Z,14.70
2019-02-05T01:39:13.451Z,16.10
2019-02-05T01:43:17.863Z,11.60
2019-02-05T01:47:22.159Z,12.70
2019-02-05T01:51:26.463Z,13.63
2019-02-05T01:55:30.803Z,13.47
2019-02-05T01:59:35.180Z,13.80
2019-02-05T02:03:39.670Z,14.30
2019-02-05T02:07:44.295Z,15.53
2019-02-05T02:11:48.652Z,13.30
2019-02-05T02:15:52.939Z,14.37
2019-02-05T02:19:57.530Z,14.77
2019-02-05T02:24:01.790Z,14.47
2019-02-05T02:28:06.251Z,15.90
2019-02-05T02:32:10.472Z,14.23
2019-02-05T02:36:14.783Z,15.43
2019-02-05T02:40:19.129Z,16.37
2019-02-05T02:44:23.478Z,15.50
2019-02-05T02:48:27.783Z,14.90
2019-02-05T02:52:32.001Z,14.17
2019-02-05T02:56:36.249Z,15.00
2019-02-05T03:00:40.626Z,14.30
2019-02-05T03:04:45.187Z,15.83
2019-02-05T03:08:49.448Z,17.37
2019-02-05T03:12:54.118Z,16.63
2019-02-05T03:16:58.410Z,14.40
2019-02-05T03:21:02.674Z,17.83
2019-02-05T03:25:07.979Z,15.23
2019-02-05T03:29:12.462Z,17.30
2019-02-05T03:33:16.749Z,15.90
2019-02-05T03:37:21.026Z,16.43
2019-02-05T03:41:25.311Z,17.20
2019-02-05T03:45:31.868Z,17.87
2019-02-05T03:49:36.426Z,20.17
2019-02-05T03:53:43.346Z,18.30
2019-02-05T03:58:30.773Z,17.80
2019-02-05T04:02:51.689Z,18.67
2019-02-05T04:07:34.526Z,21.13
2019-02-05T04:12:10.298Z,21.43
2019-02-05T04:16:41.874Z,22.70
2019-02-05T04:21:16.285Z,23.53
2019-02-05T04:25:57.557Z,26.67
2019-02-05T04:30:33.280Z,26.47
2019-02-05T04:35:01.178Z,25.60
2019-02-05T04:39:36.525Z,26.07
2019-02-05T04:43:55.435Z,25.90
2019-02-05T04:48:55.793Z,27.30
2019-02-05T04:53:26.241Z,31.90
2019-02-05T04:57:56.687Z,30.53
2019-02-05T05:02:05.682Z,34.33
2019-02-05T05:06:50.002Z,30.67
2019-02-05T05:10:54.311Z,37.13
2019-02-05T05:14:59.128Z,30.43
2019-02-05T05:19:03.950Z,32.17
2019-02-05T05:23:08.364Z,33.27
2019-02-05T05:27:14.515Z,31.27
2019-02-05T05:31:19.289Z,32.10
2019-02-05T05:35:23.823Z,35.70
2019-02-05T05:39:28.452Z,35.97
2019-02-05T05:43:32.746Z,36.30
2019-02-05T05:47:37.093Z,41.93
2019-02-05T05:51:41.513Z,40.30
2019-02-05T05:55:45.773Z,38.93
2019-02-05T05:59:50.052Z,39.40
2019-02-05T06:03:54.807Z,43.10
2019-02-05T06:07:59.256Z,44.60
2019-02-05T06:12:03.611Z,40.03
2019-02-05T06:16:09.315Z,42.57
2019-02-05T06:20:16.165Z,43.60
2019-02-05T06:24:20.478Z,40.23
2019-02-05T06:28:34.456Z,39.93
2019-02-05T06:32:30.890Z,44.97
2019-02-05T06:36:35.356Z,43.57
2019-02-05T06:40:39.975Z,49.93
2019-02-05T06:44:44.359Z,43.33
2019-02-05T06:48:48.787Z,48.77
2019-02-05T06:52:53.245Z,48.83
2019-02-05T06:56:57.871Z,47.03
2019-02-05T07:01:02.343Z,52.23
2019-02-05T07:05:08.241Z,48.00
2019-02-05T07:09:12.613Z,43.60
2019-02-05T07:13:16.901Z,49.53
2019-02-05T07:17:21.326Z,51.63
2019-02-05T07:21:44.931Z,55.30
2019-02-05T07:25:49.365Z,54.27
2019-02-05T07:29:53.780Z,54.23
2019-02-05T07:33:58.194Z,51.37
2019-02-05T07:38:02.519Z,49.00
2019-02-05T07:42:07.185Z,49.13
2019-02-05T07:46:11.851Z,51.10
2019-02-05T07:50:18.459Z,48.47
2019-02-05T07:54:22.912Z,47.93
2019-02-05T07:58:27.328Z,46.60
2019-02-05T08:02:31.707Z,44.73
2019-02-05T08:06:36.201Z,46.40
2019-02-05T08:10:40.569Z,47.50
2019-02-05T08:14:45.011Z,41.90
2019-02-05T08:18:49.456Z,48.43
2019-02-05T08:22:53.886Z,43.17
2019-02-05T08:26:58.237Z,48.13
2019-02-05T08:31:02.777Z,45.90
2019-02-05T08:35:08.355Z,42.33
2019-02-05T08:39:12.873Z,42.93
2019-02-05T08:43:17.314Z,47.67
2019-02-05T08:47:21.813Z,41.63
2019-02-05T08:51:26.277Z,39.83
2019-02-05T08:55:31.027Z,39.50
2019-02-05T09:03:59.072Z,38.03
2019-02-05T09:08:03.433Z,41.80
2019-02-05T09:12:07.922Z,38.97
2019-02-05T09:16:12.403Z,39.43
2019-02-05T09:20:17.371Z,39.53
2019-02-05T09:24:21.800Z,38.40
2019-02-05T09:28:26.241Z,35.97
2019-02-05T09:32:35.020Z,40.97
2019-02-05T09:36:36.733Z,42.17
2019-02-05T09:40:41.325Z,43.87
2019-02-05T09:44:45.785Z,40.70
2019-02-05T09:48:50.146Z,40.30
2019-02-05T09:52:54.680Z,67.00
2019-02-05T09:56:59.331Z,47.57
2019-02-05T10:01:05.161Z,41.73
2019-02-05T10:05:11.275Z,35.63
2019-02-05T10:09:15.646Z,39.03
2019-02-05T10:13:20.099Z,36.90
2019-02-05T10:17:24.735Z,36.40
2019-02-05T10:21:29.235Z,38.93
2019-02-05T10:25:33.799Z,42.60
2019-02-05T10:29:38.333Z,36.97
2019-02-05T10:33:42.767Z,39.43
2019-02-05T10:37:48.344Z,36.07
2019-02-05T10:41:52.878Z,37.30
2019-02-05T10:45:57.274Z,32.27
2019-02-05T10:50:02.206Z,38.33
2019-02-05T10:54:06.755Z,40.37
2019-02-05T10:58:11.258Z,34.70
2019-02-05T11:02:15.667Z,30.60
2019-02-05T11:06:20.309Z,31.60
2019-02-05T11:10:24.739Z,34.47
2019-02-05T11:14:29.309Z,28.33
2019-02-05T11:18:34.041Z,26.97
2019-02-05T11:22:38.433Z,27.80
2019-02-05T11:26:43.285Z,26.07
2019-02-05T11:30:47.591Z,28.97
2019-02-05T11:34:52.155Z,27.50
2019-02-05T11:38:56.598Z,28.07
2019-02-05T11:43:01.028Z,30.80
2019-02-05T11:47:05.548Z,31.70
2019-02-05T11:51:09.980Z,33.80
2019-02-05T11:55:16.535Z,29.37
2019-02-05T11:59:20.984Z,35.10
2019-02-05T12:03:25.649Z,30.73
2019-02-05T12:07:29.978Z,31.80
2019-02-05T12:11:34.341Z,34.37
2019-02-05T12:15:38.808Z,35.80
2019-02-05T12:19:43.193Z,30.40
2019-02-05T12:23:47.622Z,32.07
2019-02-05T12:27:52.016Z,33.33
2019-02-05T12:31:56.622Z,30.63
2019-02-05T12:36:00.985Z,37.77
2019-02-05T12:40:07.635Z,37.07
2019-02-05T12:44:12.407Z,34.40
2019-02-05T12:48:16.729Z,31.60
2019-02-05T12:52:21.414Z,34.57
2019-02-05T12:56:25.964Z,33.97
2019-02-05T13:00:38.697Z,32.97
2019-02-05T13:04:43.111Z,33.77
2019-02-05T13:08:47.444Z,32.73
2019-02-05T13:12:51.882Z,34.80
2019-02-05T13:16:56.508Z,35.57
2019-02-05T13:21:01.041Z,33.07
2019-02-05T13:25:09.716Z,36.37
2019-02-05T13:29:14.587Z,28.97
2019-02-05T13:33:19.356Z,31.47
2019-02-05T13:37:23.915Z,29.93
2019-02-05T13:41:29.202Z,31.60
2019-02-05T13:45:34.939Z,34.47
2019-02-05T13:49:39.322Z,35.50
2019-02-05T13:53:43.816Z,30.70
2019-02-05T13:57:48.538Z,30.20
2019-02-05T14:01:52.991Z,36.50
2019-02-05T14:05:57.590Z,33.10
2019-02-05T14:10:22.361Z,29.70
2019-02-05T14:14:26.717Z,35.37
2019-02-05T14:18:31.473Z,32.20
2019-02-05T14:22:35.975Z,35.80
2019-02-05T14:26:40.339Z,33.80
2019-02-05T14:30:50.141Z,31.53
2019-02-05T14:34:54.376Z,29.63
2019-02-05T14:39:02.556Z,29.10
2019-02-05T14:43:08.111Z,29.17
2019-02-05T14:47:12.561Z,29.83
2019-02-05T14:51:17.083Z,33.07
2019-02-05T14:55:21.826Z,30.67
2019-02-05T14:59:26.290Z,28.30
2019-02-05T15:03:30.589Z,30.40
2019-02-05T15:07:35.127Z,28.50
2019-02-05T15:11:39.899Z,32.03
2019-02-05T15:15:44.356Z,31.07
2019-02-05T15:19:49.123Z,28.13
2019-02-05T15:23:54.021Z,33.78
2019-02-05T15:27:58.627Z,26.83
2019-02-05T15:32:03.509Z,31.13
2019-02-05T15:36:36.015Z,28.73
2019-02-05T15:40:46.450Z,30.80
2019-02-05T15:44:50.887Z,26.57
2019-02-05T15:48:55.397Z,28.47
2019-02-05T15:52:59.829Z,32.03
2019-02-05T15:57:04.295Z,31.50
2019-02-05T16:01:08.605Z,26.17
2019-02-05T16:05:13.351Z,28.17
2019-02-05T16:09:17.837Z,31.67
2019-02-05T16:13:23.546Z,27.63
2019-02-05T16:17:27.970Z,31.10
2019-02-05T16:21:32.426Z,27.63
2019-02-05T16:25:36.770Z,25.90
2019-02-05T16:29:41.013Z,28.87
2019-02-05T16:33:45.385Z,31.13
2019-02-05T16:37:50.011Z,27.67
2019-02-05T16:41:55.603Z,26.47
2019-02-05T16:46:00.101Z,30.37
2019-02-05T16:50:06.129Z,26.53
2019-02-05T16:54:10.532Z,34.87
2019-02-05T16:58:15.127Z,28.07
2019-02-05T17:02:28.572Z,25.63
2019-02-05T17:06:25.565Z,28.57
2019-02-05T17:10:29.902Z,29.43
2019-02-05T17:14:34.139Z,29.90
2019-02-05T17:18:38.441Z,25.43
2019-02-05T17:22:42.993Z,28.77
2019-02-05T17:26:47.306Z,28.03
2019-02-05T17:30:53.818Z,26.20
2019-02-05T17:34:58.160Z,27.30
2019-02-05T17:39:02.555Z,28.73
2019-02-05T17:43:07.624Z,27.17
2019-02-05T17:47:18.714Z,28.67
2019-02-05T17:51:23.237Z,28.63
2019-02-05T17:55:28.049Z,26.67
2019-02-05T17:59:32.467Z,29.77
2019-02-05T18:03:37.023Z,27.60
2019-02-05T18:07:41.433Z,27.77
2019-02-05T18:11:45.887Z,28.87
2019-02-05T18:15:50.423Z,30.90
2019-02-05T18:19:56.049Z,29.70
2019-02-05T18:24:00.413Z,29.63
2019-02-05T18:28:05.282Z,30.57
2019-02-05T18:32:09.661Z,26.57
2019-02-05T18:36:13.898Z,28.83
2019-02-05T18:40:19.471Z,27.43
2019-02-05T18:44:23.822Z,26.80
2019-02-05T18:48:28.139Z,31.23
2019-02-05T18:52:32.538Z,27.63
2019-02-05T18:56:37.243Z,27.40
2019-02-05T19:00:42.702Z,26.30
2019-02-05T19:04:48.156Z,25.33
2019-02-05T19:08:52.676Z,27.43
2019-02-05T19:12:57.207Z,27.87
2019-02-05T19:17:01.558Z,29.17
2019-02-05T19:21:06.163Z,25.13
2019-02-05T19:25:49.111Z,27.93
2019-02-05T19:29:53.671Z,28.13
2019-02-05T19:33:58.495Z,29.83
2019-02-05T19:38:03.556Z,27.47
2019-02-05T19:42:09.174Z,29.60
2019-02-05T19:46:31.109Z,28.20
2019-02-05T19:50:37.803Z,29.77
2019-02-05T19:54:42.219Z,30.70
2019-02-05T19:58:46.642Z,24.90
2019-02-05T20:02:51.046Z,28.47
2019-02-05T20:06:55.448Z,27.33
2019-02-05T20:10:59.812Z,28.60
2019-02-05T20:15:07.671Z,24.63
2019-02-05T20:19:12.103Z,30.67
2019-02-05T20:23:16.818Z,33.40
2019-02-05T20:27:21.161Z,33.50
2019-02-05T20:31:25.708Z,31.03
2019-02-05T20:35:30.080Z,30.40
2019-02-05T20:39:34.605Z,25.93
2019-02-05T20:43:39.076Z,28.83
2019-02-05T20:47:43.444Z,25.07
2019-02-05T20:51:47.747Z,28.13
2019-02-05T20:55:52.252Z,29.47
2019-02-05T20:59:56.565Z,33.03
2019-02-05T21:04:01.626Z,29.10
2019-02-05T21:08:06.571Z,29.13
2019-02-05T21:12:10.871Z,28.80
2019-02-05T21:16:15.274Z,30.73
2019-02-05T21:20:28.690Z,33.80
2019-02-05T21:24:27.058Z,31.70
2019-02-05T21:28:32.094Z,37.53
2019-02-05T21:32:36.790Z,32.60
2019-02-05T21:36:41.082Z,34.33
2019-02-05T21:41:04.089Z,34.43
2019-02-05T21:45:11.007Z,38.20
2019-02-05T21:49:15.641Z,32.90
2019-02-05T21:53:20.849Z,33.00
2019-02-05T21:57:25.283Z,36.97
2019-02-05T22:01:30.099Z,46.18
2019-02-05T22:05:34.413Z,39.90
2019-02-05T22:09:39.471Z,39.00
2019-02-05T22:13:44.051Z,40.27
2019-02-05T22:17:49.093Z,50.10
2019-02-05T22:21:53.718Z,45.00
2019-02-05T22:25:58.100Z,42.80
2019-02-05T22:30:03.621Z,47.20
2019-02-05T22:34:08.740Z,48.07
2019-02-05T22:38:13.430Z,49.03
2019-02-05T22:42:17.867Z,56.97
2019-02-05T22:46:22.536Z,53.23
2019-02-05T22:50:28.759Z,48.93
2019-02-05T22:54:33.200Z,53.27
2019-02-05T22:58:37.527Z,57.33
2019-02-05T23:02:41.998Z,54.23
2019-02-05T23:07:13.191Z,57.60
2019-02-05T23:11:45.237Z,57.83
2019-02-05T23:15:50.953Z,56.27
2019-02-05T23:19:55.298Z,52.40
2019-02-05T23:23:59.695Z,54.53
2019-02-05T23:28:04.117Z,43.90
2019-02-05T23:32:08.557Z,49.50
2019-02-05T23:36:12.887Z,47.33
2019-02-05T23:40:17.282Z,52.43
2019-02-05T23:44:21.905Z,50.37
2019-02-05T23:48:26.327Z,48.77
2019-02-05T23:52:30.657Z,52.63
2019-02-05T23:56:35.635Z,46.40
